Time;durP1;ratioP1;P1;durP2;ratioP2;P2;SDS_P1;SDS_P2;PMS_P1;PMS_P2;Temp;Humidity;BMP_temperature;BMP_pressure;BME280_temperature;BME280_humidity;BME280_pressure;Samples;Min_cycle;Max_cycle;Signal;HPM_P1;HPM_P2
2023/07/21 00:01:12;;;;;;;5.70;5.10;;;;;;;14.37;79.47;101034.16;5102065;28;20016;-80
2023/07/21 00:03:45;;;;;;;6.03;5.53;;;;;;;14.38;79.34;101030.41;5108630;28;20503;-79
2023/07/21 00:06:12;;;;;;;6.22;5.68;;;;;;;14.33;79.88;101026.69;5099436;28;20399;-79
2023/07/21 00:08:37;;;;;;;5.63;5.13;;;;;;;14.29;79.94;101026.31;5106403;28;20107;-79
2023/07/21 00:11:03;;;;;;;6.05;5.47;;;;;;;14.26;80.18;101026.75;5104223;28;20026;-78
2023/07/21 00:13:29;;;;;;;6.22;5.63;;;;;;;14.20;80.51;101027.59;5107997;28;20047;-79
2023/07/21 00:15:55;;;;;;;5.95;5.35;;;;;;;14.15;80.97;101022.00;5095773;28;20082;-79
2023/07/21 00:18:21;;;;;;;6.60;5.90;;;;;;;14.07;81.05;101023.91;5109559;28;20023;-79
2023/07/21 00:20:47;;;;;;;5.70;5.20;;;;;;;13.99;81.29;101023.34;5109536;28;20105;-81
2023/07/21 00:23:12;;;;;;;5.68;5.18;;;;;;;13.94;81.38;101024.00;5105279;28;20099;-78
2023/07/21 00:25:39;;;;;;;6.20;5.57;;;;;;;13.90;81.97;101026.28;5094771;28;20432;-78
2023/07/21 00:28:04;;;;;;;8.93;6.07;;;;;;;13.83;83.08;101020.09;5096174;28;20032;-79
2023/07/21 00:30:30;;;;;;;5.93;5.43;;;;;;;13.78;82.69;101022.59;5094347;28;20028;-79
2023/07/21 00:32:57;;;;;;;6.40;5.80;;;;;;;13.75;82.34;101014.91;5081955;28;20089;-79
2023/07/21 00:35:22;;;;;;;5.85;5.35;;;;;;;13.72;82.45;101021.56;5083973;28;20025;-80
2023/07/21 00:37:47;;;;;;;6.10;5.50;;;;;;;13.68;82.47;101017.63;5079944;28;20082;-80
2023/07/21 00:40:19;;;;;;;6.80;6.20;;;;;;;13.68;82.20;101020.34;5076671;28;20021;-80
2023/07/21 00:42:45;;;;;;;6.72;6.10;;;;;;;13.65;82.96;101012.63;5081547;28;20067;-80
2023/07/21 00:45:14;;;;;;;6.18;5.55;;;;;;;13.60;82.91;101012.44;5084531;28;20149;-80
2023/07/21 00:47:40;;;;;;;7.32;6.22;;;;;;;13.55;82.98;101009.56;5085099;28;20028;-80
2023/07/21 00:50:06;;;;;;;6.50;5.80;;;;;;;13.49;83.60;101005.84;5075087;28;20518;-80
2023/07/21 00:52:31;;;;;;;6.95;6.15;;;;;;;13.42;84.30;101013.94;5085684;28;20024;-80
2023/07/21 00:54:57;;;;;;;7.03;6.32;;;;;;;13.40;85.05;101005.25;5087541;28;20082;-80
2023/07/21 00:57:23;;;;;;;7.45;6.75;;;;;;;13.35;85.39;101008.53;5083991;28;20584;-80
2023/07/21 00:59:48;;;;;;;7.03;6.32;;;;;;;13.32;85.53;101010.84;5079074;28;20023;-80
2023/07/21 01:02:14;;;;;;;7.68;6.80;;;;;;;13.26;85.50;101001.69;5085037;28;20016;-80
2023/07/21 01:04:39;;;;;;;7.10;6.15;;;;;;;13.23;85.47;101009.41;5076939;28;20134;-79
2023/07/21 01:07:09;;;;;;;7.30;6.60;;;;;;;13.16;86.41;101012.94;5076913;28;20024;-79
2023/07/21 01:09:38;;;;;;;7.30;6.70;;;;;;;13.11;86.64;101017.31;5079654;28;20841;-79
2023/07/21 01:12:06;;;;;;;8.88;6.63;;;;;;;13.08;87.23;101010.44;5087933;28;20090;-79
2023/07/21 01:14:36;;;;;;;7.18;6.57;;;;;;;13.00;87.00;101008.78;5082300;28;20042;-79
2023/07/21 01:17:02;;;;;;;7.45;6.85;;;;;;;12.96;86.69;100998.63;5084691;28;20043;-80
2023/07/21 01:19:30;;;;;;;7.35;6.70;;;;;;;12.93;86.75;101002.59;5077662;28;20028;-80
2023/07/21 01:22:12;;;;;;;7.22;6.63;;;;;;;12.91;86.81;100999.25;5070178;28;20032;-80
2023/07/21 01:24:49;;;;;;;8.07;7.35;;;;;;;12.87;88.28;100992.59;5087011;28;20032;-80
2023/07/21 01:27:15;;;;;;;7.65;6.95;;;;;;;12.85;88.57;100987.41;5095836;28;20051;-79
2023/07/21 01:29:42;;;;;;;8.20;7.40;;;;;;;12.88;88.89;100981.56;5096577;28;20050;-81
2023/07/21 01:32:09;;;;;;;7.85;7.15;;;;;;;12.93;88.80;100986.38;5081023;28;20031;-81
2023/07/21 01:34:34;;;;;;;8.10;7.03;;;;;;;12.96;88.42;100985.09;5077020;28;20407;-81
2023/07/21 01:37:00;;;;;;;7.82;7.03;;;;;;;12.98;88.14;100981.16;5089867;28;20035;-79
2023/07/21 01:39:34;;;;;;;10.65;7.38;;;;;;;13.01;88.20;100974.50;5088427;28;20527;-80
2023/07/21 01:42:00;;;;;;;7.78;6.70;;;;;;;12.99;88.18;100971.19;5067759;28;20036;-79
2023/07/21 01:44:25;;;;;;;7.35;6.65;;;;;;;12.98;88.13;100973.03;5101037;28;20020;-80
2023/07/21 01:46:52;;;;;;;8.38;7.50;;;;;;;12.98;88.22;100956.81;5102888;28;20095;-79
2023/07/21 01:49:18;;;;;;;7.13;6.35;;;;;;;12.98;88.40;100966.81;5102767;28;20062;-80
2023/07/21 01:51:43;;;;;;;7.30;6.70;;;;;;;12.93;88.35;100959.34;5109160;28;20023;-79
2023/07/21 01:54:13;;;;;;;7.68;7.07;;;;;;;12.92;88.14;100959.53;5090891;28;20643;-79
2023/07/21 01:56:41;;;;;;;7.97;7.20;;;;;;;12.86;89.07;100953.13;5076853;28;20020;-79
2023/07/21 01:59:07;;;;;;;7.15;6.55;;;;;;;12.81;89.31;100955.59;5084358;28;20430;-80
2023/07/21 02:01:33;;;;;;;9.18;7.05;;;;;;;12.77;88.79;100960.59;5076382;28;20024;-80
2023/07/21 02:03:58;;;;;;;7.57;6.88;;;;;;;12.74;89.39;100953.75;5098465;28;20035;-80
2023/07/21 02:06:24;;;;;;;7.70;6.90;;;;;;;12.69;89.94;100953.53;5098924;28;20530;-80
2023/07/21 02:08:49;;;;;;;7.90;7.03;;;;;;;12.65;90.17;100951.47;5106802;28;20020;-80
2023/07/21 02:11:14;;;;;;;8.00;7.30;;;;;;;12.61;90.54;100953.78;5101138;28;20042;-80
2023/07/21 02:13:40;;;;;;;7.40;6.70;;;;;;;12.56;90.84;100951.66;5076784;28;20031;-80
2023/07/21 02:16:05;;;;;;;7.15;6.55;;;;;;;12.52;90.88;100949.59;5096266;28;20028;-82
2023/07/21 02:18:33;;;;;;;8.88;8.07;;;;;;;12.52;90.61;100952.28;5107992;28;20498;-80
2023/07/21 02:21:04;;;;;;;9.93;8.93;;;;;;;12.45;91.21;100952.31;5105590;28;20080;-80
2023/07/21 02:23:31;;;;;;;8.77;7.97;;;;;;;12.43;92.07;100954.38;5100380;28;20146;-79
2023/07/21 02:25:58;;;;;;;10.32;7.65;;;;;;;12.38;92.18;100944.19;5105813;28;20045;-80
2023/07/21 02:28:24;;;;;;;8.90;8.10;;;;;;;12.36;92.18;100945.41;5107227;28;20073;-80
2023/07/21 02:31:03;;;;;;;8.90;8.05;;;;;;;12.33;92.16;100938.59;5099445;28;20029;-80
2023/07/21 02:33:32;;;;;;;8.45;7.70;;;;;;;12.33;92.01;100948.56;5096232;28;20074;-79
2023/07/21 02:35:59;;;;;;;9.63;7.95;;;;;;;12.32;92.47;100934.22;5104333;28;20425;-79
2023/07/21 02:38:25;;;;;;;11.02;8.32;;;;;;;12.28;92.77;100947.31;5101928;28;20475;-80
2023/07/21 02:40:51;;;;;;;8.90;8.02;;;;;;;12.27;92.81;100940.25;5107518;28;20044;-80
2023/07/21 02:43:17;;;;;;;9.13;8.38;;;;;;;12.23;93.22;100944.38;5108356;28;20039;-81
2023/07/21 02:45:52;;;;;;;10.07;7.65;;;;;;;12.19;92.77;100937.72;5102374;28;20031;-82
2023/07/21 02:48:18;;;;;;;10.20;8.68;;;;;;;12.14;93.05;100940.22;5103300;28;20856;-80
2023/07/21 02:50:50;;;;;;;9.02;8.13;;;;;;;12.10;93.23;100933.56;5099897;28;20024;-80
2023/07/21 02:53:16;;;;;;;9.70;8.73;;;;;;;12.04;93.29;100934.38;5094441;28;20141;-80
2023/07/21 02:55:42;;;;;;;9.60;8.60;;;;;;;11.99;93.19;100935.00;5115275;28;20039;-80
2023/07/21 02:58:07;;;;;;;9.27;8.43;;;;;;;11.94;93.17;100926.66;5096614;28;20080;-79
2023/07/21 03:00:33;;;;;;;11.45;10.35;;;;;;;11.88;93.25;100935.59;5113272;28;20027;-80
2023/07/21 03:02:58;;;;;;;12.75;9.75;;;;;;;11.83;94.27;100931.63;5080954;28;20028;-80
2023/07/21 03:05:24;;;;;;;10.43;9.43;;;;;;;11.80;94.77;100934.72;5083564;28;20054;-80
2023/07/21 03:07:50;;;;;;;11.32;10.25;;;;;;;11.77;95.21;100931.59;5107158;28;20042;-80
2023/07/21 03:10:16;;;;;;;10.90;9.30;;;;;;;11.74;94.92;100938.22;5104741;28;20463;-81
2023/07/21 03:12:42;;;;;;;10.43;9.43;;;;;;;11.68;95.31;100937.16;5103211;28;20023;-80
2023/07/21 03:15:08;;;;;;;11.77;10.25;;;;;;;11.62;95.26;100924.50;5104140;28;20035;-80
2023/07/21 03:17:33;;;;;;;11.65;10.43;;;;;;;11.61;95.81;100924.69;5093922;28;20153;-80
2023/07/21 03:19:59;;;;;;;10.43;9.32;;;;;;;11.56;95.99;100924.50;5108241;28;20487;-80
2023/07/21 03:22:24;;;;;;;12.70;10.20;;;;;;;11.51;95.62;100919.69;5102410;28;20501;-80
2023/07/21 03:24:50;;;;;;;11.18;10.07;;;;;;;11.50;95.75;100918.00;5090448;28;20032;-80
2023/07/21 03:27:15;;;;;;;11.18;9.85;;;;;;;11.51;95.90;100930.47;5092363;28;20054;-80
2023/07/21 03:29:42;;;;;;;10.77;9.77;;;;;;;11.47;96.36;100923.84;5095014;28;20530;-80
2023/07/21 03:32:08;;;;;;;10.75;9.82;;;;;;;11.46;96.47;100927.56;5096017;28;20162;-80
2023/07/21 03:34:35;;;;;;;11.90;10.68;;;;;;;11.46;96.39;100930.25;5098172;28;20032;-82
2023/07/21 03:37:04;;;;;;;11.05;9.95;;;;;;;11.53;96.39;100925.72;5100778;28;20032;-79
2023/07/21 03:39:30;;;;;;;10.82;9.80;;;;;;;11.56;96.15;100928.00;5107440;28;20024;-80
2023/07/21 03:41:56;;;;;;;10.38;9.38;;;;;;;11.51;96.21;100941.25;5104968;28;20038;-80
2023/07/21 03:44:22;;;;;;;10.82;9.48;;;;;;;11.49;95.88;100932.53;5092142;28;20024;-80
2023/07/21 03:46:47;;;;;;;10.52;9.55;;;;;;;11.46;95.70;100932.94;5104786;28;20582;-80
2023/07/21 03:49:15;;;;;;;10.70;9.70;;;;;;;11.48;95.48;100936.25;5097058;28;20020;-80
2023/07/21 03:51:41;;;;;;;10.30;9.13;;;;;;;11.62;95.80;100935.28;5093174;28;20064;-80
2023/07/21 03:54:06;;;;;;;11.35;9.00;;;;;;;11.67;95.07;100930.09;5105531;28;20020;-80
2023/07/21 03:56:32;;;;;;;10.65;9.65;;;;;;;11.71;95.20;100935.09;5101091;28;20383;-80
2023/07/21 03:58:58;;;;;;;11.15;9.48;;;;;;;11.70;95.31;100930.75;5105097;28;20044;-80
2023/07/21 04:01:24;;;;;;;9.93;9.02;;;;;;;11.71;94.95;100929.72;5095413;28;20052;-80
2023/07/21 04:03:50;;;;;;;9.10;8.30;;;;;;;11.79;95.01;100929.53;5104960;28;20051;-82
2023/07/21 04:06:17;;;;;;;9.77;8.85;;;;;;;11.85;94.32;100931.41;5107366;28;20053;-80
2023/07/21 04:08:46;;;;;;;9.80;8.90;;;;;;;11.86;94.51;100927.66;5081796;28;20036;-80
2023/07/21 04:11:11;;;;;;;10.55;8.88;;;;;;;11.82;94.11;100923.75;5101381;28;20079;-80
2023/07/21 04:13:36;;;;;;;9.13;8.23;;;;;;;11.93;93.50;100927.69;5102094;28;20464;-80
2023/07/21 04:16:06;;;;;;;8.68;7.88;;;;;;;12.04;93.33;100919.03;5102201;28;20027;-80
2023/07/21 04:18:32;;;;;;;9.20;7.78;;;;;;;12.14;92.98;100926.75;5094305;28;20024;-80
2023/07/21 04:20:59;;;;;;;8.98;8.15;;;;;;;12.23;92.77;100924.66;5104914;28;20024;-81
2023/07/21 04:23:25;;;;;;;8.90;8.05;;;;;;;12.31;92.26;100919.06;5094830;28;20093;-80
2023/07/21 04:25:53;;;;;;;9.07;8.27;;;;;;;12.43;91.51;100927.38;5102875;28;20101;-80
2023/07/21 04:28:19;;;;;;;9.07;8.18;;;;;;;12.42;91.52;100925.72;5098439;28;20046;-80
2023/07/21 04:30:44;;;;;;;9.38;8.40;;;;;;;12.42;91.46;100915.75;5110050;28;20596;-80
2023/07/21 04:33:10;;;;;;;9.23;8.32;;;;;;;12.40;91.04;100925.94;5104843;28;20032;-80
2023/07/21 04:35:35;;;;;;;9.27;8.38;;;;;;;12.44;91.11;100918.22;5101940;28;20069;-80
2023/07/21 04:38:01;;;;;;;10.50;9.50;;;;;;;12.46;91.81;100918.00;5096878;28;20035;-83
2023/07/21 04:40:27;;;;;;;9.40;8.50;;;;;;;12.63;91.00;100921.97;5103636;28;20028;-80
2023/07/21 04:42:52;;;;;;;9.45;8.20;;;;;;;12.78;90.54;100919.03;5099019;28;20027;-80
2023/07/21 04:45:18;;;;;;;9.00;8.20;;;;;;;13.08;88.86;100923.97;5109963;28;20115;-80
2023/07/21 04:47:43;;;;;;;9.43;8.52;;;;;;;13.02;88.38;100919.44;5091787;28;20047;-80
2023/07/21 04:50:09;;;;;;;8.98;7.93;;;;;;;13.07;88.76;100919.59;5106839;22;20040;-82
2023/07/21 04:52:36;;;;;;;8.85;7.95;;;;;;;13.27;87.67;100914.16;5072470;28;20495;-80
2023/07/21 04:55:05;;;;;;;8.27;7.57;;;;;;;13.43;86.21;100912.84;5072321;28;20492;-79
2023/07/21 04:57:33;;;;;;;10.45;7.97;;;;;;;13.52;85.75;100912.63;5075542;28;20032;-78
2023/07/21 04:59:59;;;;;;;8.50;7.70;;;;;;;13.57;84.65;100915.53;5074568;28;20028;-79
2023/07/21 05:02:26;;;;;;;9.32;8.43;;;;;;;13.39;85.56;100914.31;5077314;28;20028;-78
2023/07/21 05:04:52;;;;;;;9.23;8.38;;;;;;;13.24;86.89;100916.47;5064560;28;20113;-79
2023/07/21 05:07:18;;;;;;;9.35;8.45;;;;;;;13.19;87.65;100915.22;5079917;28;20028;-78
2023/07/21 05:09:44;;;;;;;9.55;8.57;;;;;;;13.21;87.31;100923.09;5096502;28;20028;-78
2023/07/21 05:12:09;;;;;;;12.30;8.73;;;;;;;13.18;87.78;100923.53;5083896;28;20070;-79
2023/07/21 05:14:34;;;;;;;9.20;8.25;;;;;;;14.04;86.08;100921.50;5079510;28;20032;-78
2023/07/21 05:17:00;;;;;;;7.72;7.03;;;;;;;15.32;79.60;100920.34;5071687;28;20039;-79
2023/07/21 05:19:28;;;;;;;7.07;6.47;;;;;;;16.48;74.14;100923.97;5073954;28;20039;-78
2023/07/21 05:21:55;;;;;;;7.38;6.63;;;;;;;16.99;71.59;100924.34;5071014;28;20035;-79
2023/07/21 05:24:22;;;;;;;7.03;6.40;;;;;;;17.66;68.43;100927.59;5078904;28;20596;-79
2023/07/21 05:26:48;;;;;;;7.00;6.38;;;;;;;18.19;66.16;100917.41;5056272;28;20032;-79
2023/07/21 05:29:14;;;;;;;6.72;6.13;;;;;;;18.70;64.01;100928.31;5075010;28;20021;-79
2023/07/21 05:31:44;;;;;;;7.45;6.75;;;;;;;18.23;64.55;100926.75;5073519;28;20429;-79
2023/07/21 05:34:09;;;;;;;6.32;5.72;;;;;;;19.01;62.80;100930.69;5076738;28;20033;-79
2023/07/21 05:36:38;;;;;;;6.20;5.60;;;;;;;19.96;59.73;100926.91;5065460;28;20028;-79
2023/07/21 05:39:04;;;;;;;7.00;6.40;;;;;;;20.15;57.76;100922.72;5081183;28;20097;-79
2023/07/21 05:41:29;;;;;;;6.72;6.13;;;;;;;;;;5069959;28;20100;-79
2023/07/21 05:43:58;;;;;;;7.37;6.43;;;;;;;20.25;57.39;100921.97;5075111;28;20024;-80
2023/07/21 05:46:24;;;;;;;8.00;7.28;;;;;;;18.74;61.81;100915.84;5069592;28;20752;-80
2023/07/21 05:48:49;;;;;;;7.80;6.13;;;;;;;19.31;60.42;100916.63;5071220;28;20028;-79
2023/07/21 05:51:17;;;;;;;6.47;5.90;;;;;;;20.54;57.13;100924.41;5066948;28;20052;-79
2023/07/21 05:53:43;;;;;;;6.75;6.15;;;;;;;21.27;55.01;100928.41;5069919;28;20103;-80
2023/07/21 05:56:08;;;;;;;7.30;6.68;;;;;;;20.85;55.09;100915.59;5069908;28;20043;-80
2023/07/21 05:58:35;;;;;;;6.70;6.05;;;;;;;20.25;57.53;100927.44;5072814;28;20024;-80
2023/07/21 06:01:00;;;;;;;7.68;6.97;;;;;;;19.73;59.65;100923.38;5072511;28;20032;-80
2023/07/21 06:03:26;;;;;;;7.50;6.80;;;;;;;20.17;57.07;100922.47;5072466;28;20066;-79
2023/07/21 06:05:52;;;;;;;6.53;5.93;;;;;;;20.33;57.61;100926.13;5064266;28;20033;-79
2023/07/21 06:08:18;;;;;;;7.82;7.03;;;;;;;19.34;60.23;100926.22;5066959;28;20082;-80
2023/07/21 06:10:44;;;;;;;10.80;7.53;;;;;;;18.48;63.09;100925.53;5072447;28;20118;-79
2023/07/21 06:13:11;;;;;;;9.00;7.03;;;;;;;17.88;65.22;100922.28;5076672;28;20459;-80
2023/07/21 06:15:36;;;;;;;7.45;6.85;;;;;;;18.32;64.26;100917.13;5072108;28;20041;-80
2023/07/21 06:18:05;;;;;;;7.40;6.78;;;;;;;18.39;64.01;100908.78;5070700;28;20025;-79
2023/07/21 06:20:31;;;;;;;6.57;6.07;;;;;;;19.01;62.37;100906.16;5062633;28;20016;-82
2023/07/21 06:22:58;;;;;;;7.20;6.50;;;;;;;19.30;60.95;100914.97;5071382;28;20365;-81
2023/07/21 06:25:24;;;;;;;7.13;6.43;;;;;;;18.92;62.78;100914.72;5055644;28;20419;-80
2023/07/21 06:27:50;;;;;;;7.65;6.88;;;;;;;19.02;62.87;100914.06;5073264;28;20321;-75
2023/07/21 06:30:16;;;;;;;13.75;7.22;;;;;;;18.83;63.30;100910.78;5069778;28;20370;-79
2023/07/21 06:32:41;;;;;;;7.70;6.90;;;;;;;18.70;63.83;100913.88;5067759;28;20035;-76
2023/07/21 06:35:10;;;;;;;8.05;7.15;;;;;;;18.42;64.83;100912.88;5091479;28;20032;-76
2023/07/21 06:37:39;;;;;;;7.70;6.90;;;;;;;18.67;63.74;100914.38;5075674;28;20036;-77
2023/07/21 06:40:06;;;;;;;10.48;6.82;;;;;;;19.01;63.63;100917.06;5077487;28;20028;-76
2023/07/21 06:42:32;;;;;;;8.27;7.38;;;;;;;19.42;62.36;100908.56;5069267;28;20529;-77
2023/07/21 06:44:58;;;;;;;7.75;6.93;;;;;;;19.25;62.42;100917.63;5069631;28;20021;-77
2023/07/21 06:47:24;;;;;;;8.00;7.20;;;;;;;19.32;62.68;100914.72;5069559;28;20024;-77
2023/07/21 06:49:49;;;;;;;7.22;6.43;;;;;;;20.28;58.73;100912.44;5068241;28;20488;-77
2023/07/21 06:52:15;;;;;;;7.28;6.57;;;;;;;20.70;57.96;100913.56;5064192;28;20380;-78
2023/07/21 06:54:40;;;;;;;7.65;6.88;;;;;;;20.55;57.91;100917.84;5069990;28;20028;-78
2023/07/21 06:57:06;;;;;;;8.70;7.82;;;;;;;20.49;58.44;100910.69;5064441;28;20024;-77
2023/07/21 06:59:32;;;;;;;8.80;7.95;;;;;;;20.96;57.07;100911.84;5068437;28;20480;-78
2023/07/21 07:01:57;;;;;;;6.15;5.65;;;;;;;22.02;55.21;100915.47;5077744;28;20028;-77
2023/07/21 07:04:23;;;;;;;6.65;6.00;;;;;;;23.04;50.93;100913.75;5069015;28;20455;-79
2023/07/21 07:06:50;;;;;;;6.78;6.05;;;;;;;24.43;47.42;100911.28;5072176;28;20025;-80
2023/07/21 07:09:16;;;;;;;6.60;5.88;;;;;;;24.62;45.34;100912.19;5073835;28;20028;-79
2023/07/21 07:11:44;;;;;;;6.38;5.85;;;;;;;24.06;47.60;100908.03;5077493;28;20020;-78
2023/07/21 07:14:10;;;;;;;6.10;5.50;;;;;;;25.08;44.72;100919.16;5064608;28;20111;-79
2023/07/21 07:16:36;;;;;;;7.18;6.20;;;;;;;24.74;45.55;100911.84;5071993;28;20041;-77
2023/07/21 07:19:01;;;;;;;5.53;4.93;;;;;;;25.56;44.40;100918.31;5075044;28;20035;-76
2023/07/21 07:21:27;;;;;;;6.55;5.97;;;;;;;26.60;41.40;100911.16;5068997;28;20081;-77
2023/07/21 07:24:01;;;;;;;6.00;5.32;;;;;;;26.69;40.88;100909.31;5066307;28;20029;-78
2023/07/21 07:26:27;;;;;;;6.00;5.50;;;;;;;26.61;41.42;100908.06;5074097;28;20383;-79
2023/07/21 07:28:53;;;;;;;6.13;5.00;;;;;;;27.29;39.74;100904.84;5072116;28;20464;-79
2023/07/21 07:31:18;;;;;;;5.57;5.18;;;;;;;27.23;38.90;100914.34;5072269;28;20024;-80
2023/07/21 07:33:44;;;;;;;4.95;4.40;;;;;;;27.66;38.61;100907.63;5064851;28;20035;-78
2023/07/21 07:36:11;;;;;;;4.30;3.90;;;;;;;27.61;38.54;100908.56;5073898;28;20671;-79
2023/07/21 07:38:37;;;;;;;5.82;5.28;;;;;;;26.72;40.15;100913.41;5047015;28;20029;-78
2023/07/21 07:41:14;;;;;;;4.43;4.03;;;;;;;28.12;37.74;100908.50;5059691;28;20040;-78
2023/07/21 07:43:40;;;;;;;3.97;3.67;;;;;;;28.92;35.80;100901.47;5065161;28;20036;-77
2023/07/21 07:46:07;;;;;;;4.28;3.88;;;;;;;29.44;34.06;100904.38;5043342;28;20389;-78
2023/07/21 07:48:35;;;;;;;3.92;3.63;;;;;;;28.64;34.87;100896.94;5068141;28;20464;-77
2023/07/21 07:51:07;;;;;;;4.00;3.70;;;;;;;28.41;35.27;100901.69;5066893;28;20037;-77
2023/07/21 07:53:36;;;;;;;5.22;4.35;;;;;;;26.91;38.89;100897.59;5064498;28;20040;-76
2023/07/21 07:56:02;;;;;;;4.70;4.32;;;;;;;27.62;37.82;100903.88;5071711;28;20036;-76
2023/07/21 07:58:30;;;;;;;4.22;3.78;;;;;;;27.61;36.52;100897.50;5065010;28;20072;-77
2023/07/21 08:00:57;;;;;;;3.45;3.15;;;;;;;26.54;37.41;100898.56;5065301;28;20048;-77
2023/07/21 08:03:22;;;;;;;4.57;4.18;;;;;;;25.69;40.46;100904.88;5066607;28;20376;-77
2023/07/21 08:05:49;;;;;;;4.05;3.67;;;;;;;26.04;39.65;100897.19;5072495;28;20031;-77
2023/07/21 08:08:18;;;;;;;4.03;3.47;;;;;;;26.99;37.28;100900.75;5074787;28;20386;-77
2023/07/21 08:10:44;;;;;;;3.60;3.30;;;;;;;28.26;35.49;100895.41;5073680;28;20488;-77
2023/07/21 08:13:12;;;;;;;4.07;3.78;;;;;;;27.02;36.29;100889.91;5076926;28;20039;-79
2023/07/21 08:15:44;;;;;;;4.50;3.40;;;;;;;27.74;34.51;100893.06;5066034;28;20101;-80
2023/07/21 08:18:13;;;;;;;4.25;3.83;;;;;;;26.73;36.08;100901.25;5071400;28;20032;-79
2023/07/21 08:20:41;;;;;;;4.10;3.80;;;;;;;26.86;36.02;100891.34;5072880;28;20035;-78
2023/07/21 08:23:06;;;;;;;4.75;3.80;;;;;;;25.98;37.92;100898.38;5076822;28;20032;-79
2023/07/21 08:25:31;;;;;;;5.18;4.38;;;;;;;26.04;37.82;100895.22;5072362;28;20028;-79
2023/07/21 08:27:59;;;;;;;5.28;4.18;;;;;;;26.66;35.18;100893.34;5079728;28;20109;-78
2023/07/21 08:30:25;;;;;;;5.10;4.60;;;;;;;25.62;37.06;100893.41;5072204;28;20160;-78
2023/07/21 08:32:50;;;;;;;6.30;4.75;;;;;;;26.17;36.25;100901.94;5070889;28;20059;-78
2023/07/21 08:35:17;;;;;;;4.57;4.18;;;;;;;26.97;35.41;100891.97;5074513;28;20041;-78
2023/07/21 08:37:43;;;;;;;3.28;2.85;;;;;;;27.33;32.95;100903.09;5071807;28;20028;-79
2023/07/21 08:40:09;;;;;;;2.80;2.20;;;;;;;28.58;29.84;100901.78;5075833;28;20021;-79
2023/07/21 08:42:35;;;;;;;2.35;2.15;;;;;;;28.79;28.67;100905.97;5060456;28;20028;-79
2023/07/21 08:45:00;;;;;;;2.92;2.60;;;;;;;28.31;29.02;100902.78;5067459;28;20170;-79
2023/07/21 08:47:26;;;;;;;3.63;2.42;;;;;;;29.69;27.62;100913.03;5059132;28;20032;-79
2023/07/21 08:49:51;;;;;;;3.70;3.40;;;;;;;28.25;30.60;100904.84;5056979;28;20044;-79
2023/07/21 08:52:16;;;;;;;4.53;3.97;;;;;;;26.77;33.39;100897.56;5074752;28;20466;-79
2023/07/21 08:54:43;;;;;;;4.88;4.47;;;;;;;26.93;33.71;100897.28;5071747;28;20016;-79
2023/07/21 08:57:10;;;;;;;6.32;5.70;;;;;;;26.53;33.59;100896.91;5080478;28;20032;-79
2023/07/21 08:59:36;;;;;;;7.18;6.47;;;;;;;26.50;34.42;100901.13;5075219;28;20078;-79
2023/07/21 09:02:01;;;;;;;6.78;5.55;;;;;;;26.73;33.86;100899.28;5070275;28;20032;-79
2023/07/21 09:04:27;;;;;;;6.32;5.70;;;;;;;25.28;36.67;100904.28;5075690;28;20383;-79
2023/07/21 09:06:53;;;;;;;8.07;7.32;;;;;;;24.52;38.62;100896.59;5069917;28;20690;-79
2023/07/21 09:09:23;;;;;;;8.15;7.35;;;;;;;24.89;38.01;100894.31;5078665;28;20039;-77
2023/07/21 09:11:49;;;;;;;8.70;7.80;;;;;;;24.64;38.82;100893.47;5075042;28;20032;-77
2023/07/21 09:14:15;;;;;;;7.75;6.53;;;;;;;25.26;38.17;100894.69;5070895;28;20021;-77
2023/07/21 09:16:41;;;;;;;9.38;7.55;;;;;;;25.09;37.76;100900.69;5080822;28;20061;-78
2023/07/21 09:19:07;;;;;;;9.93;7.38;;;;;;;26.35;35.50;100896.69;5073184;28;20028;-76
2023/07/21 09:21:35;;;;;;;8.43;7.53;;;;;;;26.10;36.42;100892.38;5073398;28;20168;-77
2023/07/21 09:24:04;;;;;;;7.97;7.18;;;;;;;26.22;35.88;100894.72;5063623;28;20539;-77
2023/07/21 09:26:36;;;;;;;10.27;8.15;;;;;;;24.92;39.27;100893.72;5069814;28;20060;-76
2023/07/21 09:29:01;;;;;;;11.80;10.70;;;;;;;24.95;37.94;100889.56;5062983;28;20035;-76
2023/07/21 09:31:34;;;;;;;14.15;12.70;;;;;;;25.04;37.87;100898.81;5066851;28;20391;-79
2023/07/21 09:34:06;;;;;;;13.50;12.13;;;;;;;24.51;38.47;100894.16;5067252;28;20035;-79
2023/07/21 09:36:31;;;;;;;10.30;9.07;;;;;;;24.36;38.92;100893.16;5070595;28;20111;-79
2023/07/21 09:38:57;;;;;;;11.07;9.98;;;;;;;24.89;38.26;100894.31;5054563;28;20028;-78
2023/07/21 09:41:23;;;;;;;11.65;10.45;;;;;;;26.91;35.38;100894.84;5035215;28;20040;-77
2023/07/21 09:43:53;;;;;;;12.02;10.43;;;;;;;26.84;34.54;100886.13;5067294;28;20044;-76
2023/07/21 09:46:18;;;;;;;7.93;7.20;;;;;;;27.39;34.44;100879.72;5083654;28;20035;-77
2023/07/21 09:48:44;;;;;;;8.40;6.90;;;;;;;27.26;33.63;100888.88;5060984;28;20024;-77
2023/07/21 09:51:10;;;;;;;7.93;7.13;;;;;;;27.16;33.23;100889.91;5058396;28;20048;-77
2023/07/21 09:53:45;;;;;;;8.60;7.80;;;;;;;26.06;35.13;100886.66;5084901;28;20456;-77
2023/07/21 09:56:12;;;;;;;9.02;7.20;;;;;;;25.94;35.98;100880.81;5071450;28;20032;-76
2023/07/21 09:58:53;;;;;;;9.02;8.13;;;;;;;25.88;36.27;100885.56;5069434;28;20029;-76
2023/07/21 10:01:19;;;;;;;10.13;9.23;;;;;;;25.98;35.76;100885.41;5067760;28;20038;-76
2023/07/21 10:03:44;;;;;;;11.02;9.80;;;;;;;25.21;37.20;100884.56;5056284;28;20408;-76
2023/07/21 10:06:10;;;;;;;11.43;10.15;;;;;;;24.95;37.36;100870.31;5051243;28;20058;-76
2023/07/21 10:08:36;;;;;;;9.60;8.30;;;;;;;25.18;36.57;100876.91;5047163;28;20033;-76
2023/07/21 10:11:04;;;;;;;9.82;8.82;;;;;;;25.72;36.66;100873.97;5031571;28;20418;-77
2023/07/21 10:13:30;;;;;;;9.85;8.73;;;;;;;26.54;35.17;100879.22;5046141;28;20040;-76
2023/07/21 10:16:09;;;;;;;9.18;8.18;;;;;;;27.79;32.49;100881.06;5067959;28;20036;-76
2023/07/21 10:19:01;;;;;;;10.25;9.13;;;;;;;27.96;31.72;100883.97;5061093;28;20487;-76
2023/07/21 10:21:46;;;;;;;8.82;7.95;;;;;;;28.50;30.90;100885.13;5060439;28;20024;-76
2023/07/21 10:24:14;;;;;;;9.68;8.73;;;;;;;27.32;33.08;100878.50;5062958;28;20365;-77
2023/07/21 10:26:43;;;;;;;8.88;7.95;;;;;;;26.87;33.36;100881.94;5038995;28;20027;-77
2023/07/21 10:29:15;;;;;;;7.07;6.38;;;;;;;26.05;34.85;100885.03;5037316;28;20029;-78
2023/07/21 10:31:50;;;;;;;5.38;4.88;;;;;;;26.11;34.79;100878.34;5069623;28;20020;-77
2023/07/21 10:34:16;;;;;;;14.02;6.05;;;;;;;24.53;38.12;100870.72;5067470;28;20428;-78
2023/07/21 10:36:45;;;;;;;6.05;5.45;;;;;;;24.10;39.55;100872.50;5072071;28;20094;-78
2023/07/21 10:39:11;;;;;;;5.13;4.60;;;;;;;25.84;36.26;100862.47;5063670;28;20043;-77
2023/07/21 10:41:38;;;;;;;5.57;5.07;;;;;;;26.66;33.55;100865.72;5060577;28;20028;-78
2023/07/21 10:44:08;;;;;;;4.88;4.40;;;;;;;28.50;31.30;100874.06;5076521;28;20031;-79
2023/07/21 10:46:40;;;;;;;5.13;4.63;;;;;;;28.19;31.87;100864.63;5068314;28;20039;-80
2023/07/21 10:49:09;;;;;;;4.70;4.30;;;;;;;30.19;28.45;100875.63;5065319;28;20035;-80
2023/07/21 10:51:34;;;;;;;4.50;4.10;;;;;;;31.04;26.90;100864.81;5067272;28;20044;-82
2023/07/21 10:54:00;;;;;;;5.20;4.70;;;;;;;30.38;27.54;100866.91;5068168;28;20115;-80
2023/07/21 10:56:25;;;;;;;5.55;4.40;;;;;;;28.26;30.96;100870.50;5073111;28;20039;-81
2023/07/21 10:58:52;;;;;;;6.25;4.07;;;;;;;27.18;33.18;100859.22;5083504;28;20091;-81
2023/07/21 11:01:19;;;;;;;4.95;4.32;;;;;;;26.74;33.96;100865.03;5070592;28;20040;-82
2023/07/21 11:03:48;;;;;;;5.20;4.30;;;;;;;26.23;33.48;100861.28;5051561;28;20039;-80
2023/07/21 11:06:14;;;;;;;6.35;4.60;;;;;;;25.46;35.82;100860.56;5072687;28;20486;-80
2023/07/21 11:08:41;;;;;;;4.78;4.28;;;;;;;26.05;35.32;100851.91;5062681;28;20029;-80
2023/07/21 11:11:08;;;;;;;5.25;4.70;;;;;;;27.73;31.67;100854.66;5078355;28;20044;-80
2023/07/21 11:13:33;;;;;;;4.45;4.05;;;;;;;28.16;31.44;100856.94;5076455;28;20514;-80
2023/07/21 11:16:00;;;;;;;4.03;3.60;;;;;;;28.72;29.76;100853.78;5073249;28;20032;-81
2023/07/21 11:18:25;;;;;;;4.88;4.18;;;;;;;28.41;29.80;100854.63;5065131;28;20465;-80
2023/07/21 11:20:54;;;;;;;6.53;4.53;;;;;;;26.94;32.07;100843.69;5069597;28;20040;-80
2023/07/21 11:23:22;;;;;;;3.90;3.50;;;;;;;26.93;31.97;100842.84;5077583;28;20028;-80